Matthews, North Carolina
Current Conditions -  °F | °C
As of 11:53 AM on Friday 24 Oct 2014 (Local Time) from KEQY Reporting Station
Clear Clear  
Wind Chill: 65°   Ceiling: Unl
Heat Index: 65°   Visibility: 10mi
Dew Point: 41°   Wind: 0mph
Humidity: 42%   Direction: NA
Pressure: 30.07"   Gusts: NA
Location:  35.12°N, 80.72°W
Report Text: KEQY 241553Z AUTO 00000KT 10SM CLR 18/05 A3007 RMK AO2 SLP190 T01830050
Loading
Personal Weather Stations






























Interactive Weather Map
Tropical Storm Tracking
New forecast layout! Learn more

10-Day Weather Forecast

Advertisements
Track Severe Weather on mobile